createdAt,value
2023-05-19T00:01:16.681Z,11.77
2023-05-19T00:03:52.757Z,11.76
2023-05-19T00:06:27.345Z,11.74
2023-05-19T00:09:07.801Z,11.66
2023-05-19T00:11:39.104Z,11.67
2023-05-19T00:14:07.947Z,11.68
2023-05-19T00:16:35.044Z,11.70
2023-05-19T00:19:03.666Z,11.71
2023-05-19T00:21:31.292Z,11.66
2023-05-19T00:23:58.720Z,11.72
2023-05-19T00:26:27.078Z,11.74
2023-05-19T00:29:04.356Z,11.72
2023-05-19T00:31:31.768Z,11.68
2023-05-19T00:33:58.360Z,11.68
2023-05-19T00:36:26.034Z,11.68
2023-05-19T00:38:52.867Z,11.68
2023-05-19T00:41:19.597Z,11.65
2023-05-19T00:43:46.247Z,11.68
2023-05-19T00:46:12.937Z,11.65
2023-05-19T00:48:39.613Z,11.61
2023-05-19T00:51:06.676Z,11.58
2023-05-19T00:53:34.736Z,11.53
2023-05-19T00:56:03.069Z,11.55
2023-05-19T00:58:31.203Z,11.53
2023-05-19T01:01:03.852Z,11.49
2023-05-19T01:03:36.274Z,11.46
2023-05-19T01:06:07.159Z,11.41
2023-05-19T01:08:35.722Z,11.39
2023-05-19T01:11:02.868Z,11.39
2023-05-19T01:13:30.527Z,11.37
2023-05-19T01:16:09.176Z,11.34
2023-05-19T01:18:40.093Z,11.31
2023-05-19T01:21:24.858Z,11.27
2023-05-19T01:23:57.141Z,11.21
2023-05-19T01:26:54.921Z,11.17
2023-05-19T01:29:41.038Z,11.15
2023-05-19T01:32:09.334Z,11.14
2023-05-19T01:34:44.201Z,11.09
2023-05-19T01:37:13.331Z,11.09
2023-05-19T01:39:40.370Z,11.07
2023-05-19T01:42:07.977Z,11.08
2023-05-19T01:44:35.730Z,11.10
2023-05-19T01:47:02.575Z,11.09
2023-05-19T01:49:29.359Z,11.14
2023-05-19T01:51:56.297Z,11.16
2023-05-19T01:54:22.981Z,11.21
2023-05-19T01:57:15.070Z,11.22
2023-05-19T02:00:15.815Z,11.25
2023-05-19T02:02:55.385Z,11.27
2023-05-19T02:05:29.560Z,11.23
2023-05-19T02:08:17.214Z,11.20
2023-05-19T02:10:50.073Z,11.20
2023-05-19T02:13:20.129Z,11.18
2023-05-19T02:15:48.510Z,11.17
2023-05-19T02:18:17.864Z,11.19
2023-05-19T02:20:44.493Z,11.19
2023-05-19T02:23:11.063Z,11.18
2023-05-19T02:25:37.592Z,11.11
2023-05-19T02:28:06.751Z,11.08
2023-05-19T02:30:33.643Z,11.07
2023-05-19T02:33:00.647Z,11.07
2023-05-19T02:35:27.931Z,11.06
2023-05-19T02:37:54.477Z,11.04
2023-05-19T02:40:22.262Z,11.03
2023-05-19T02:42:49.435Z,11.05
2023-05-19T02:45:16.290Z,11.09
2023-05-19T02:47:42.858Z,11.07
2023-05-19T02:50:09.554Z,11.08
2023-05-19T02:52:36.047Z,11.06
2023-05-19T02:55:02.552Z,11.07
2023-05-19T02:57:30.051Z,11.05
2023-05-19T02:59:56.532Z,11.05
2023-05-19T03:02:23.028Z,11.04
2023-05-19T03:04:49.881Z,11.04
2023-05-19T03:07:16.474Z,11.07
2023-05-19T03:09:43.001Z,11.08
2023-05-19T03:12:09.602Z,11.04
2023-05-19T03:14:39.110Z,11.04
2023-05-19T03:17:08.094Z,11.03
2023-05-19T03:19:34.716Z,11.03
2023-05-19T03:22:01.244Z,11.05
2023-05-19T03:24:28.258Z,11.08
2023-05-19T03:26:55.668Z,11.11
2023-05-19T03:29:22.164Z,11.07
2023-05-19T03:31:48.775Z,11.02
2023-05-19T03:34:16.510Z,11.04
2023-05-19T03:36:44.986Z,11.04
2023-05-19T03:39:15.471Z,11.03
2023-05-19T03:41:42.361Z,11.01
2023-05-19T03:44:08.881Z,11.02
2023-05-19T03:46:35.420Z,11.01
2023-05-19T03:49:07.609Z,11.02
2023-05-19T03:51:54.105Z,11.02
2023-05-19T03:54:31.686Z,11.00
2023-05-19T03:56:58.329Z,11.02
2023-05-19T03:59:24.911Z,11.00
2023-05-19T04:01:51.654Z,11.02
2023-05-19T04:04:18.265Z,11.03
2023-05-19T04:06:45.648Z,11.06
2023-05-19T04:09:14.169Z,11.06
2023-05-19T04:11:41.980Z,11.08
2023-05-19T04:14:09.180Z,11.10
2023-05-19T04:16:36.767Z,11.08
2023-05-19T04:19:03.611Z,11.02
2023-05-19T04:21:30.143Z,11.02
2023-05-19T04:23:59.170Z,11.03
2023-05-19T04:26:26.889Z,11.05
2023-05-19T04:28:53.941Z,11.01
2023-05-19T04:31:21.601Z,11.02
2023-05-19T04:33:49.647Z,11.05
2023-05-19T04:36:18.393Z,11.06
2023-05-19T04:38:46.529Z,11.07
2023-05-19T04:41:13.937Z,11.04
2023-05-19T04:43:44.430Z,11.06
2023-05-19T04:46:13.879Z,11.03
2023-05-19T04:48:42.714Z,11.02
2023-05-19T04:51:09.363Z,11.03
2023-05-19T04:53:36.516Z,11.07
2023-05-19T04:56:09.627Z,11.09
2023-05-19T04:58:38.738Z,11.12
2023-05-19T05:01:06.723Z,11.12
2023-05-19T05:03:34.589Z,11.14
2023-05-19T05:06:01.347Z,11.16
2023-05-19T05:08:28.241Z,11.22
2023-05-19T05:10:55.351Z,11.26
2023-05-19T05:13:24.037Z,11.28
2023-05-19T05:15:52.956Z,11.37
2023-05-19T05:18:22.328Z,11.41
2023-05-19T05:20:49.454Z,11.44
2023-05-19T05:23:16.709Z,11.47
2023-05-19T05:25:47.226Z,11.41
2023-05-19T05:28:15.020Z,11.47
2023-05-19T05:30:43.589Z,11.51
2023-05-19T05:33:10.613Z,11.57
2023-05-19T05:35:39.208Z,11.61
2023-05-19T05:38:08.103Z,11.66
2023-05-19T05:40:36.250Z,11.70
2023-05-19T05:43:04.121Z,11.69
2023-05-19T05:45:34.769Z,11.73
2023-05-19T05:48:02.009Z,11.73
2023-05-19T05:50:30.685Z,11.64
2023-05-19T05:53:01.141Z,11.83
2023-05-19T05:55:28.065Z,11.83
2023-05-19T05:57:56.911Z,11.90
2023-05-19T06:00:23.648Z,11.99
2023-05-19T06:02:52.812Z,12.06
2023-05-19T06:05:20.293Z,12.05
2023-05-19T06:07:48.013Z,12.08
2023-05-19T06:10:19.809Z,12.15
2023-05-19T06:12:47.207Z,12.23
2023-05-19T06:15:14.875Z,12.29
2023-05-19T06:18:01.143Z,12.33
2023-05-19T06:20:27.956Z,12.34
2023-05-19T06:22:55.762Z,12.37
2023-05-19T06:25:24.707Z,12.40
2023-05-19T06:27:51.453Z,12.43
2023-05-19T06:30:19.534Z,12.50
2023-05-19T06:33:01.014Z,12.52
2023-05-19T06:35:27.861Z,12.55
2023-05-19T06:37:56.233Z,12.50
2023-05-19T06:40:23.413Z,12.57
2023-05-19T06:42:49.961Z,12.58
2023-05-19T06:45:25.199Z,12.56
2023-05-19T06:47:51.764Z,12.52
2023-05-19T06:50:19.117Z,12.50
2023-05-19T06:52:48.743Z,12.45
2023-05-19T06:55:15.880Z,12.40
2023-05-19T06:57:43.085Z,12.34
2023-05-19T07:00:15.260Z,12.35
2023-05-19T07:02:47.084Z,12.35
2023-05-19T07:05:14.126Z,12.36
2023-05-19T07:07:41.756Z,12.42
2023-05-19T07:10:12.837Z,12.48
2023-05-19T07:12:39.402Z,12.53
2023-05-19T07:15:07.193Z,12.55
2023-05-19T07:17:34.809Z,12.52
2023-05-19T07:20:01.645Z,12.54
2023-05-19T07:22:28.389Z,12.60
2023-05-19T07:24:57.053Z,12.65
2023-05-19T07:27:23.555Z,12.72
2023-05-19T07:29:49.986Z,12.84
2023-05-19T07:32:16.533Z,12.91
2023-05-19T07:34:43.172Z,13.01
2023-05-19T07:37:09.774Z,13.12
2023-05-19T07:39:36.303Z,13.21
2023-05-19T07:42:03.237Z,13.19
2023-05-19T07:44:31.409Z,13.25
2023-05-19T07:46:57.918Z,13.36
2023-05-19T07:49:24.438Z,13.43
2023-05-19T07:51:50.939Z,13.51
2023-05-19T07:54:17.419Z,13.58
2023-05-19T07:56:44.021Z,13.60
2023-05-19T07:59:10.579Z,13.74
2023-05-19T08:01:37.069Z,13.85
2023-05-19T08:04:03.774Z,14.06
2023-05-19T08:06:31.713Z,14.21
2023-05-19T08:08:58.267Z,14.38
2023-05-19T08:11:24.736Z,14.47
2023-05-19T08:13:51.668Z,14.56
2023-05-19T08:16:18.359Z,14.74
2023-05-19T08:18:44.927Z,14.91
2023-05-19T08:21:11.781Z,15.01
2023-05-19T08:23:38.720Z,15.07
2023-05-19T08:26:05.560Z,15.10
2023-05-19T08:28:32.108Z,15.13
2023-05-19T08:30:58.677Z,15.26
2023-05-19T08:33:25.328Z,15.32
2023-05-19T08:35:51.796Z,15.36
2023-05-19T08:38:18.302Z,15.23
2023-05-19T08:40:47.273Z,15.05
2023-05-19T08:43:14.028Z,14.92
2023-05-19T08:45:46.691Z,14.88
2023-05-19T08:48:14.830Z,14.86
2023-05-19T08:50:50.822Z,14.71
2023-05-19T08:53:33.823Z,14.67
2023-05-19T08:56:11.266Z,14.61
2023-05-19T08:58:40.499Z,14.62
2023-05-19T09:01:08.507Z,14.64
2023-05-19T09:03:39.264Z,14.64
2023-05-19T09:06:08.635Z,14.60
2023-05-19T09:08:36.125Z,14.56
2023-05-19T09:11:02.678Z,14.52
2023-05-19T09:13:29.205Z,14.46
2023-05-19T09:15:59.592Z,14.41
2023-05-19T09:18:26.878Z,14.42
2023-05-19T09:21:02.723Z,14.33
2023-05-19T09:23:32.572Z,14.37
2023-05-19T09:26:02.263Z,14.38
2023-05-19T09:28:33.400Z,14.44
2023-05-19T09:31:01.127Z,14.50
2023-05-19T09:33:28.774Z,14.50
2023-05-19T09:35:58.768Z,14.48
2023-05-19T09:38:29.348Z,14.33
2023-05-19T09:40:57.916Z,14.19
2023-05-19T09:43:27.249Z,14.11
2023-05-19T09:46:07.515Z,14.12
2023-05-19T09:48:36.438Z,14.18
2023-05-19T09:51:06.238Z,14.14
2023-05-19T09:53:34.330Z,14.19
2023-05-19T09:56:02.189Z,14.29
2023-05-19T09:58:35.068Z,14.46
2023-05-19T10:01:02.422Z,14.56
2023-05-19T10:03:30.974Z,14.52
2023-05-19T10:05:57.540Z,14.38
2023-05-19T10:08:26.555Z,14.34
2023-05-19T10:10:53.621Z,14.35
2023-05-19T10:13:21.855Z,14.40
2023-05-19T10:15:58.284Z,14.38
2023-05-19T10:18:27.623Z,14.38
2023-05-19T10:20:54.355Z,14.41
2023-05-19T10:23:21.091Z,14.38
2023-05-19T10:25:49.267Z,14.31
2023-05-19T10:28:21.096Z,14.34
2023-05-19T10:30:51.212Z,14.25
2023-05-19T10:33:20.946Z,14.09
2023-05-19T10:36:15.768Z,13.97
2023-05-19T10:38:50.009Z,13.85
2023-05-19T10:41:55.146Z,13.77
2023-05-19T10:44:40.607Z,13.74
2023-05-19T10:47:08.692Z,13.72
2023-05-19T10:49:36.599Z,13.73
2023-05-19T10:52:03.628Z,13.79
2023-05-19T10:54:46.132Z,13.78
2023-05-19T10:57:17.066Z,13.77
2023-05-19T10:59:47.155Z,13.77
2023-05-19T11:02:40.227Z,13.82
2023-05-19T11:05:14.897Z,13.83
2023-05-19T11:07:44.223Z,13.86
2023-05-19T11:10:11.476Z,13.86
2023-05-19T11:12:45.793Z,13.82
2023-05-19T11:15:14.179Z,13.78
2023-05-19T11:17:45.274Z,13.75
2023-05-19T11:20:22.780Z,13.68
2023-05-19T11:23:09.476Z,13.73
2023-05-19T11:25:47.617Z,13.81
2023-05-19T11:28:19.658Z,13.88
2023-05-19T11:30:50.635Z,13.84
2023-05-19T11:33:20.622Z,13.82
2023-05-19T11:35:49.554Z,13.78
2023-05-19T11:38:18.585Z,13.78
2023-05-19T11:40:45.268Z,13.76
2023-05-19T11:43:11.749Z,13.79
2023-05-19T11:45:38.464Z,13.88
2023-05-19T11:48:05.991Z,13.99
2023-05-19T11:50:32.756Z,14.07
2023-05-19T11:53:00.885Z,14.08
2023-05-19T11:55:27.974Z,14.03
2023-05-19T11:58:04.943Z,13.95
2023-05-19T12:00:39.535Z,13.91
2023-05-19T12:03:07.392Z,13.84
2023-05-19T12:05:40.911Z,13.78
2023-05-19T12:08:09.920Z,13.76
2023-05-19T12:10:36.918Z,13.76
2023-05-19T12:13:03.645Z,13.81
2023-05-19T12:15:32.054Z,13.81
2023-05-19T12:18:00.472Z,13.86
2023-05-19T12:20:28.523Z,13.92
2023-05-19T12:22:56.387Z,14.03
2023-05-19T12:25:23.922Z,14.11
2023-05-19T12:27:52.748Z,14.17
2023-05-19T12:30:26.414Z,14.23
2023-05-19T12:32:54.194Z,14.29
2023-05-19T12:35:23.241Z,14.30
2023-05-19T12:37:50.560Z,14.35
2023-05-19T12:40:17.495Z,14.38
2023-05-19T12:42:48.747Z,14.35
2023-05-19T12:45:15.290Z,14.36
2023-05-19T12:47:41.888Z,14.39
2023-05-19T12:50:10.006Z,14.47
2023-05-19T12:52:47.757Z,14.60
2023-05-19T12:55:16.344Z,14.65
2023-05-19T12:57:44.671Z,14.70
2023-05-19T13:00:22.822Z,14.67
2023-05-19T13:03:05.421Z,14.67
2023-05-19T13:05:35.091Z,14.66
2023-05-19T13:08:05.459Z,14.67
2023-05-19T13:10:33.465Z,14.71
2023-05-19T13:13:00.893Z,14.83
2023-05-19T13:15:34.236Z,14.92
2023-05-19T13:18:03.732Z,15.08
2023-05-19T13:20:30.860Z,15.22
2023-05-19T13:22:57.824Z,15.28
2023-05-19T13:25:24.408Z,15.28
2023-05-19T13:27:51.073Z,15.38
2023-05-19T13:30:18.737Z,15.39
2023-05-19T13:32:46.107Z,15.38
2023-05-19T13:35:14.586Z,15.26
2023-05-19T13:37:44.352Z,15.11
2023-05-19T13:40:11.589Z,14.96
2023-05-19T13:42:38.127Z,14.89
2023-05-19T13:45:05.342Z,14.76
2023-05-19T13:47:31.894Z,14.72
2023-05-19T13:49:58.635Z,14.70
2023-05-19T13:52:28.224Z,14.71
2023-05-19T13:54:56.751Z,14.73
2023-05-19T13:57:24.271Z,14.69
2023-05-19T14:00:01.801Z,14.73
2023-05-19T14:02:38.693Z,14.74
2023-05-19T14:05:06.354Z,14.77
2023-05-19T14:07:34.685Z,14.82
2023-05-19T14:10:02.443Z,14.82
2023-05-19T14:12:38.027Z,14.85
2023-05-19T14:15:14.215Z,14.93
2023-05-19T14:17:40.843Z,15.00
2023-05-19T14:20:08.445Z,15.06
2023-05-19T14:22:35.218Z,15.14
2023-05-19T14:25:02.168Z,15.19
2023-05-19T14:27:28.650Z,15.25
2023-05-19T14:29:55.250Z,15.32
2023-05-19T14:32:22.165Z,15.41
2023-05-19T14:34:52.685Z,15.36
2023-05-19T14:37:20.095Z,15.29
2023-05-19T14:39:46.674Z,15.31
2023-05-19T14:42:13.153Z,15.33
2023-05-19T14:44:39.613Z,15.36
2023-05-19T14:47:07.379Z,15.41
2023-05-19T14:49:34.006Z,15.52
2023-05-19T14:52:00.751Z,15.68
2023-05-19T14:54:27.193Z,15.73
2023-05-19T14:56:53.675Z,15.92
2023-05-19T14:59:21.548Z,15.99
2023-05-19T15:01:48.130Z,16.09
2023-05-19T15:04:14.784Z,16.18
2023-05-19T15:06:41.594Z,16.23
2023-05-19T15:09:08.226Z,16.22
2023-05-19T15:11:34.743Z,16.17
2023-05-19T15:14:01.248Z,16.17
2023-05-19T15:16:27.789Z,16.20
2023-05-19T15:18:54.839Z,16.33
2023-05-19T15:21:21.714Z,16.51
2023-05-19T15:23:48.376Z,16.69
2023-05-19T15:26:14.924Z,16.76
2023-05-19T15:28:41.629Z,16.78
2023-05-19T15:31:08.276Z,16.71
2023-05-19T15:33:34.887Z,16.59
2023-05-19T15:36:01.420Z,16.50
2023-05-19T15:38:29.830Z,16.48
2023-05-19T15:40:56.641Z,16.40
2023-05-19T15:43:23.265Z,16.38
2023-05-19T15:45:52.231Z,16.33
2023-05-19T15:48:19.117Z,16.30
2023-05-19T15:50:45.838Z,16.25
2023-05-19T15:53:12.416Z,16.25
2023-05-19T15:55:38.903Z,16.31
2023-05-19T15:58:05.455Z,16.38
2023-05-19T16:00:32.099Z,16.49
2023-05-19T16:02:58.837Z,16.62
2023-05-19T16:05:25.561Z,16.80
2023-05-19T16:07:52.017Z,16.91
2023-05-19T16:10:18.504Z,17.01
2023-05-19T16:12:45.011Z,17.08
2023-05-19T16:15:11.586Z,17.18
2023-05-19T16:17:38.204Z,17.15
2023-05-19T16:20:05.313Z,17.16
2023-05-19T16:22:32.196Z,17.11
2023-05-19T16:24:58.786Z,17.08
2023-05-19T16:27:25.415Z,17.12
2023-05-19T16:29:51.916Z,17.12
2023-05-19T16:32:18.616Z,17.06
2023-05-19T16:34:45.101Z,17.06
2023-05-19T16:37:11.601Z,17.13
2023-05-19T16:39:38.082Z,17.21
2023-05-19T16:42:04.954Z,17.30
2023-05-19T16:44:31.446Z,17.32
2023-05-19T16:46:57.962Z,17.30
2023-05-19T16:49:24.437Z,17.20
2023-05-19T16:51:52.874Z,17.04
2023-05-19T16:54:19.642Z,16.97
2023-05-19T16:56:46.217Z,16.89
2023-05-19T16:59:12.766Z,16.85
2023-05-19T17:01:39.343Z,16.82
2023-05-19T17:04:05.964Z,16.76
2023-05-19T17:06:32.443Z,16.67
2023-05-19T17:08:58.969Z,16.61
2023-05-19T17:11:26.715Z,16.53
2023-05-19T17:13:53.211Z,16.47
2023-05-19T17:16:19.713Z,16.42
2023-05-19T17:18:47.923Z,16.36
2023-05-19T17:21:14.556Z,16.33
2023-05-19T17:23:41.521Z,16.26
2023-05-19T17:26:07.999Z,16.24
2023-05-19T17:28:34.692Z,16.23
2023-05-19T17:31:01.416Z,16.26
2023-05-19T17:33:27.932Z,16.32
2023-05-19T17:35:54.478Z,16.31
2023-05-19T17:38:20.953Z,16.32
2023-05-19T17:40:47.506Z,16.28
2023-05-19T17:43:15.035Z,16.29
2023-05-19T17:45:41.526Z,16.28
2023-05-19T17:48:08.060Z,16.34
2023-05-19T17:50:34.798Z,16.36
2023-05-19T17:53:01.692Z,16.70
2023-05-19T17:55:30.269Z,16.98
2023-05-19T17:57:57.522Z,17.11
2023-05-19T18:00:25.248Z,17.04
2023-05-19T18:02:52.511Z,16.91
2023-05-19T18:05:19.576Z,16.82
2023-05-19T18:07:46.301Z,16.73
2023-05-19T18:10:15.421Z,16.67
2023-05-19T18:12:42.082Z,16.58
2023-05-19T18:15:08.860Z,16.52
2023-05-19T18:17:35.466Z,16.43
2023-05-19T18:20:02.373Z,16.32
2023-05-19T18:22:28.930Z,16.23
2023-05-19T18:24:56.183Z,16.13
2023-05-19T18:27:22.693Z,16.04
2023-05-19T18:29:49.141Z,15.96
2023-05-19T18:32:17.620Z,15.88
2023-05-19T18:34:44.197Z,15.84
2023-05-19T18:37:10.847Z,15.75
2023-05-19T18:39:37.426Z,15.73
2023-05-19T18:42:04.125Z,15.64
2023-05-19T18:44:30.612Z,15.57
2023-05-19T18:46:57.071Z,15.53
2023-05-19T18:49:24.889Z,15.48
2023-05-19T18:51:51.751Z,15.44
2023-05-19T18:54:18.327Z,15.40
2023-05-19T18:56:44.834Z,15.36
2023-05-19T18:59:11.440Z,15.33
2023-05-19T19:01:38.077Z,15.27
2023-05-19T19:04:04.795Z,15.23
2023-05-19T19:06:31.766Z,15.20
2023-05-19T19:08:58.194Z,15.14
2023-05-19T19:11:24.664Z,15.09
2023-05-19T19:13:51.418Z,15.04
2023-05-19T19:16:18.137Z,14.98
2023-05-19T19:18:44.737Z,14.94
2023-05-19T19:21:11.380Z,14.89
2023-05-19T19:23:37.990Z,14.87
2023-05-19T19:26:04.500Z,14.83
2023-05-19T19:28:31.078Z,14.78
2023-05-19T19:30:57.583Z,14.75
2023-05-19T19:33:24.724Z,14.72
2023-05-19T19:35:51.482Z,14.70
2023-05-19T19:38:18.000Z,14.66
2023-05-19T19:40:44.465Z,14.67
2023-05-19T19:43:11.255Z,14.62
2023-05-19T19:45:39.513Z,14.65
2023-05-19T19:48:07.152Z,14.58
2023-05-19T19:50:34.509Z,14.62
2023-05-19T19:53:01.371Z,14.61
2023-05-19T19:55:28.865Z,14.59
2023-05-19T19:57:55.384Z,14.57
2023-05-19T20:00:21.885Z,14.58
2023-05-19T20:03:03.451Z,14.57
2023-05-19T20:05:31.347Z,14.53
2023-05-19T20:07:57.830Z,14.51
2023-05-19T20:10:24.359Z,14.50
2023-05-19T20:12:51.171Z,14.51
2023-05-19T20:15:17.807Z,14.52
2023-05-19T20:17:44.336Z,14.51
2023-05-19T20:20:12.288Z,14.49
2023-05-19T20:22:39.161Z,14.50
2023-05-19T20:25:06.173Z,14.48
2023-05-19T20:27:32.662Z,14.47
2023-05-19T20:29:59.171Z,14.48
2023-05-19T20:32:25.865Z,14.48
2023-05-19T20:34:52.426Z,14.47
2023-05-19T20:37:18.914Z,14.45
2023-05-19T20:39:45.379Z,14.42
2023-05-19T20:42:12.285Z,14.40
2023-05-19T20:44:38.832Z,14.40
2023-05-19T20:47:08.091Z,14.38
2023-05-19T20:49:34.930Z,14.36
2023-05-19T20:52:01.531Z,14.36
2023-05-19T20:54:28.031Z,14.33
2023-05-19T20:56:54.572Z,14.34
2023-05-19T20:59:21.162Z,14.31
2023-05-19T21:01:48.031Z,14.30
2023-05-19T21:04:14.664Z,14.30
2023-05-19T21:06:41.295Z,14.27
2023-05-19T21:09:07.781Z,14.25
2023-05-19T21:11:34.346Z,14.23
2023-05-19T21:14:04.081Z,14.19
2023-05-19T21:16:31.338Z,14.17
2023-05-19T21:18:58.074Z,14.14
2023-05-19T21:21:24.682Z,14.13
2023-05-19T21:23:51.175Z,14.11
2023-05-19T21:26:17.884Z,14.10
2023-05-19T21:28:44.332Z,14.10
2023-05-19T21:31:10.968Z,14.08
2023-05-19T21:33:37.560Z,14.05
2023-05-19T21:36:04.236Z,14.01
2023-05-19T21:38:30.845Z,14.05
2023-05-19T21:40:57.299Z,14.04
2023-05-19T21:43:23.756Z,14.05
2023-05-19T21:45:50.206Z,14.05
2023-05-19T21:48:16.793Z,14.05
2023-05-19T21:50:43.359Z,14.06
2023-05-19T21:53:09.953Z,14.07
2023-05-19T21:55:36.481Z,14.06
2023-05-19T21:58:03.058Z,14.04
2023-05-19T22:00:29.621Z,14.02
2023-05-19T22:02:56.290Z,14.02
2023-05-19T22:05:22.896Z,14.02
2023-05-19T22:07:49.405Z,14.00
2023-05-19T22:10:15.945Z,14.00
2023-05-19T22:12:42.449Z,14.01
2023-05-19T22:15:09.683Z,14.00
2023-05-19T22:17:36.227Z,14.01
2023-05-19T22:20:02.732Z,14.02
2023-05-19T22:22:29.163Z,14.03
2023-05-19T22:24:55.653Z,14.06
2023-05-19T22:27:22.104Z,14.08
2023-05-19T22:29:48.599Z,14.10
2023-05-19T22:32:17.937Z,14.09
2023-05-19T22:34:44.734Z,14.07
2023-05-19T22:37:11.662Z,14.07
2023-05-19T22:39:39.008Z,14.04
2023-05-19T22:42:05.873Z,14.06
2023-05-19T22:44:32.336Z,14.07
2023-05-19T22:46:58.792Z,14.09
2023-05-19T22:49:26.146Z,14.10
2023-05-19T22:51:52.752Z,14.11
2023-05-19T22:54:19.270Z,14.11
2023-05-19T22:56:48.417Z,14.11
2023-05-19T22:59:17.611Z,14.10
2023-05-19T23:01:46.411Z,14.12
2023-05-19T23:04:13.485Z,14.10
2023-05-19T23:06:40.012Z,14.09
2023-05-19T23:09:06.613Z,14.06
2023-05-19T23:11:33.937Z,14.05
2023-05-19T23:14:00.522Z,14.03
2023-05-19T23:16:26.993Z,14.01
2023-05-19T23:18:53.529Z,14.03
2023-05-19T23:21:20.047Z,14.02
2023-05-19T23:23:46.529Z,14.00
2023-05-19T23:26:15.885Z,14.01
2023-05-19T23:28:43.295Z,13.98
2023-05-19T23:31:09.940Z,13.98
2023-05-19T23:33:36.465Z,13.97
2023-05-19T23:36:07.801Z,13.98
2023-05-19T23:38:35.314Z,13.97
2023-05-19T23:41:02.258Z,13.94
2023-05-19T23:43:28.889Z,13.96
2023-05-19T23:45:55.494Z,13.94
2023-05-19T23:48:21.984Z,13.94
2023-05-19T23:50:48.490Z,13.96
2023-05-19T23:53:15.069Z,13.95
2023-05-19T23:55:42.173Z,13.92
2023-05-19T23:58:08.675Z,13.95
